sensor_id;sensor_type;location;lat;lon;timestamp;temperature;humidity
43338;DHT22;28933;52.492;13.434;2022-07-06T00:01:00;19.40;65.00
43338;DHT22;28933;52.492;13.434;2022-07-06T00:03:25;19.30;65.20
43338;DHT22;28933;52.492;13.434;2022-07-06T00:05:51;19.30;65.70
43338;DHT22;28933;52.492;13.434;2022-07-06T00:08:17;19.30;65.80
43338;DHT22;28933;52.492;13.434;2022-07-06T00:10:42;19.30;66.00
43338;DHT22;28933;52.492;13.434;2022-07-06T00:13:09;19.30;66.10
43338;DHT22;28933;52.492;13.434;2022-07-06T00:15:34;19.20;66.70
43338;DHT22;28933;52.492;13.434;2022-07-06T00:18:00;19.20;66.60
43338;DHT22;28933;52.492;13.434;2022-07-06T00:20:25;19.10;66.60
43338;DHT22;28933;52.492;13.434;2022-07-06T00:22:51;19.20;67.20
43338;DHT22;28933;52.492;13.434;2022-07-06T00:25:17;19.10;67.20
43338;DHT22;28933;52.492;13.434;2022-07-06T00:27:42;19.10;67.10
43338;DHT22;28933;52.492;13.434;2022-07-06T00:30:08;19.10;67.50
43338;DHT22;28933;52.492;13.434;2022-07-06T00:32:34;19.10;67.50
43338;DHT22;28933;52.492;13.434;2022-07-06T00:34:59;19.10;67.60
43338;DHT22;28933;52.492;13.434;2022-07-06T00:37:25;19.00;67.60
43338;DHT22;28933;52.492;13.434;2022-07-06T00:39:50;19.00;67.70
43338;DHT22;28933;52.492;13.434;2022-07-06T00:42:16;19.00;67.90
43338;DHT22;28933;52.492;13.434;2022-07-06T00:44:41;19.00;68.00
43338;DHT22;28933;52.492;13.434;2022-07-06T00:47:07;19.00;68.00
43338;DHT22;28933;52.492;13.434;2022-07-06T00:49:33;19.00;68.10
43338;DHT22;28933;52.492;13.434;2022-07-06T00:52:18;19.00;68.30
43338;DHT22;28933;52.492;13.434;2022-07-06T00:54:44;19.00;67.40
43338;DHT22;28933;52.492;13.434;2022-07-06T00:57:10;18.90;68.10
43338;DHT22;28933;52.492;13.434;2022-07-06T00:59:36;18.90;68.40
43338;DHT22;28933;52.492;13.434;2022-07-06T01:02:02;18.90;68.60
43338;DHT22;28933;52.492;13.434;2022-07-06T01:04:27;18.90;68.70
43338;DHT22;28933;52.492;13.434;2022-07-06T01:06:53;18.90;68.90
43338;DHT22;28933;52.492;13.434;2022-07-06T01:09:19;18.90;69.00
43338;DHT22;28933;52.492;13.434;2022-07-06T01:11:45;18.90;69.10
43338;DHT22;28933;52.492;13.434;2022-07-06T01:14:12;18.90;69.30
43338;DHT22;28933;52.492;13.434;2022-07-06T01:16:37;18.90;69.30
43338;DHT22;28933;52.492;13.434;2022-07-06T01:19:03;18.90;69.40
43338;DHT22;28933;52.492;13.434;2022-07-06T01:21:29;18.90;69.50
43338;DHT22;28933;52.492;13.434;2022-07-06T01:23:54;18.90;69.50
43338;DHT22;28933;52.492;13.434;2022-07-06T01:26:20;18.90;69.60
43338;DHT22;28933;52.492;13.434;2022-07-06T01:28:50;18.90;69.70
43338;DHT22;28933;52.492;13.434;2022-07-06T01:31:19;19.00;69.80
43338;DHT22;28933;52.492;13.434;2022-07-06T01:33:45;18.90;69.70
43338;DHT22;28933;52.492;13.434;2022-07-06T01:36:11;18.90;69.80
43338;DHT22;28933;52.492;13.434;2022-07-06T01:38:44;19.00;70.00
43338;DHT22;28933;52.492;13.434;2022-07-06T01:41:10;18.90;70.00
43338;DHT22;28933;52.492;13.434;2022-07-06T01:43:36;18.90;70.00
43338;DHT22;28933;52.492;13.434;2022-07-06T01:46:01;18.90;69.90
43338;DHT22;28933;52.492;13.434;2022-07-06T01:48:27;18.90;69.80
43338;DHT22;28933;52.492;13.434;2022-07-06T01:50:52;18.90;69.90
43338;DHT22;28933;52.492;13.434;2022-07-06T01:53:18;19.00;69.80
43338;DHT22;28933;52.492;13.434;2022-07-06T01:55:44;18.90;69.90
43338;DHT22;28933;52.492;13.434;2022-07-06T01:58:09;19.00;70.00
43338;DHT22;28933;52.492;13.434;2022-07-06T02:00:35;19.00;70.10
43338;DHT22;28933;52.492;13.434;2022-07-06T02:03:00;19.00;70.10
43338;DHT22;28933;52.492;13.434;2022-07-06T02:05:26;19.00;69.90
43338;DHT22;28933;52.492;13.434;2022-07-06T02:07:52;19.00;69.90
43338;DHT22;28933;52.492;13.434;2022-07-06T02:10:17;19.00;70.00
43338;DHT22;28933;52.492;13.434;2022-07-06T02:12:43;19.00;70.00
43338;DHT22;28933;52.492;13.434;2022-07-06T02:15:09;19.00;69.80
43338;DHT22;28933;52.492;13.434;2022-07-06T02:17:35;19.00;69.70
43338;DHT22;28933;52.492;13.434;2022-07-06T02:20:00;19.00;69.40
43338;DHT22;28933;52.492;13.434;2022-07-06T02:22:26;19.00;69.60
43338;DHT22;28933;52.492;13.434;2022-07-06T02:24:51;19.00;69.50
43338;DHT22;28933;52.492;13.434;2022-07-06T02:27:17;19.00;69.70
43338;DHT22;28933;52.492;13.434;2022-07-06T02:29:42;19.00;70.10
43338;DHT22;28933;52.492;13.434;2022-07-06T02:32:08;18.90;70.70
43338;DHT22;28933;52.492;13.434;2022-07-06T02:34:33;19.00;71.10
43338;DHT22;28933;52.492;13.434;2022-07-06T02:36:59;19.00;71.50
43338;DHT22;28933;52.492;13.434;2022-07-06T02:39:25;19.00;71.40
43338;DHT22;28933;52.492;13.434;2022-07-06T02:41:51;18.90;72.00
43338;DHT22;28933;52.492;13.434;2022-07-06T02:44:16;18.90;72.30
43338;DHT22;28933;52.492;13.434;2022-07-06T02:46:42;18.70;73.60
43338;DHT22;28933;52.492;13.434;2022-07-06T02:49:07;18.60;74.50
43338;DHT22;28933;52.492;13.434;2022-07-06T02:51:33;18.60;75.20
43338;DHT22;28933;52.492;13.434;2022-07-06T02:53:58;18.50;75.80
43338;DHT22;28933;52.492;13.434;2022-07-06T02:56:24;18.50;76.30
43338;DHT22;28933;52.492;13.434;2022-07-06T02:58:49;18.50;76.90
43338;DHT22;28933;52.492;13.434;2022-07-06T03:01:15;18.50;77.40
43338;DHT22;28933;52.492;13.434;2022-07-06T03:03:40;18.50;77.60
43338;DHT22;28933;52.492;13.434;2022-07-06T03:06:06;18.50;77.90
43338;DHT22;28933;52.492;13.434;2022-07-06T03:08:32;18.50;78.40
43338;DHT22;28933;52.492;13.434;2022-07-06T03:10:57;18.50;78.70
43338;DHT22;28933;52.492;13.434;2022-07-06T03:13:23;18.50;79.00
43338;DHT22;28933;52.492;13.434;2022-07-06T03:15:48;18.50;79.10
43338;DHT22;28933;52.492;13.434;2022-07-06T03:18:14;18.40;79.10
43338;DHT22;28933;52.492;13.434;2022-07-06T03:20:39;18.40;79.50
43338;DHT22;28933;52.492;13.434;2022-07-06T03:23:05;18.40;79.60
43338;DHT22;28933;52.492;13.434;2022-07-06T03:25:30;18.40;79.50
43338;DHT22;28933;52.492;13.434;2022-07-06T03:27:57;18.40;79.80
43338;DHT22;28933;52.492;13.434;2022-07-06T03:30:23;18.50;80.00
43338;DHT22;28933;52.492;13.434;2022-07-06T03:32:48;18.50;80.00
43338;DHT22;28933;52.492;13.434;2022-07-06T03:35:14;18.60;80.10
43338;DHT22;28933;52.492;13.434;2022-07-06T03:37:40;18.60;80.00
43338;DHT22;28933;52.492;13.434;2022-07-06T03:40:06;18.70;80.00
43338;DHT22;28933;52.492;13.434;2022-07-06T03:42:32;18.70;79.90
43338;DHT22;28933;52.492;13.434;2022-07-06T03:44:57;18.70;80.20
43338;DHT22;28933;52.492;13.434;2022-07-06T03:47:23;18.70;79.90
43338;DHT22;28933;52.492;13.434;2022-07-06T03:49:48;18.70;79.90
43338;DHT22;28933;52.492;13.434;2022-07-06T03:52:14;18.70;79.80
43338;DHT22;28933;52.492;13.434;2022-07-06T03:54:39;18.70;79.70
43338;DHT22;28933;52.492;13.434;2022-07-06T03:57:05;18.70;79.80
43338;DHT22;28933;52.492;13.434;2022-07-06T03:59:30;18.70;79.70
43338;DHT22;28933;52.492;13.434;2022-07-06T04:01:56;18.60;79.70
43338;DHT22;28933;52.492;13.434;2022-07-06T04:04:21;18.60;79.60
43338;DHT22;28933;52.492;13.434;2022-07-06T04:06:47;18.60;80.50
43338;DHT22;28933;52.492;13.434;2022-07-06T04:09:12;18.60;80.10
43338;DHT22;28933;52.492;13.434;2022-07-06T04:11:38;18.60;80.00
43338;DHT22;28933;52.492;13.434;2022-07-06T04:14:03;18.60;79.80
43338;DHT22;28933;52.492;13.434;2022-07-06T04:16:29;18.70;80.10
43338;DHT22;28933;52.492;13.434;2022-07-06T04:18:55;18.70;80.10
43338;DHT22;28933;52.492;13.434;2022-07-06T04:21:20;18.60;79.70
43338;DHT22;28933;52.492;13.434;2022-07-06T04:23:46;18.60;80.00
43338;DHT22;28933;52.492;13.434;2022-07-06T04:26:11;18.70;80.40
43338;DHT22;28933;52.492;13.434;2022-07-06T04:28:37;18.70;79.60
43338;DHT22;28933;52.492;13.434;2022-07-06T04:31:03;18.80;79.30
43338;DHT22;28933;52.492;13.434;2022-07-06T04:33:28;18.80;79.00
43338;DHT22;28933;52.492;13.434;2022-07-06T04:35:54;18.70;79.20
43338;DHT22;28933;52.492;13.434;2022-07-06T04:38:19;18.70;79.10
43338;DHT22;28933;52.492;13.434;2022-07-06T04:40:45;18.70;79.20
43338;DHT22;28933;52.492;13.434;2022-07-06T04:43:12;18.70;79.30
43338;DHT22;28933;52.492;13.434;2022-07-06T04:45:37;18.80;79.00
43338;DHT22;28933;52.492;13.434;2022-07-06T04:48:03;18.80;78.70
43338;DHT22;28933;52.492;13.434;2022-07-06T04:50:29;18.70;79.00
43338;DHT22;28933;52.492;13.434;2022-07-06T04:52:55;18.70;79.10
43338;DHT22;28933;52.492;13.434;2022-07-06T04:55:20;18.70;78.90
43338;DHT22;28933;52.492;13.434;2022-07-06T04:57:46;18.60;79.00
43338;DHT22;28933;52.492;13.434;2022-07-06T05:00:12;18.60;79.10
43338;DHT22;28933;52.492;13.434;2022-07-06T05:02:37;18.70;78.80
43338;DHT22;28933;52.492;13.434;2022-07-06T05:05:03;18.60;78.70
43338;DHT22;28933;52.492;13.434;2022-07-06T05:07:29;18.60;78.90
43338;DHT22;28933;52.492;13.434;2022-07-06T05:09:56;18.60;79.00
43338;DHT22;28933;52.492;13.434;2022-07-06T05:12:22;18.50;79.10
43338;DHT22;28933;52.492;13.434;2022-07-06T05:14:47;18.50;79.10
43338;DHT22;28933;52.492;13.434;2022-07-06T05:17:13;18.50;79.20
43338;DHT22;28933;52.492;13.434;2022-07-06T05:19:38;18.50;79.10
43338;DHT22;28933;52.492;13.434;2022-07-06T05:22:04;18.50;79.40
43338;DHT22;28933;52.492;13.434;2022-07-06T05:24:29;18.40;79.20
43338;DHT22;28933;52.492;13.434;2022-07-06T05:26:55;18.40;79.50
43338;DHT22;28933;52.492;13.434;2022-07-06T05:29:20;18.40;79.60
43338;DHT22;28933;52.492;13.434;2022-07-06T05:31:46;18.40;79.40
43338;DHT22;28933;52.492;13.434;2022-07-06T05:34:12;18.40;79.60
43338;DHT22;28933;52.492;13.434;2022-07-06T05:36:37;18.40;79.80
43338;DHT22;28933;52.492;13.434;2022-07-06T05:39:03;18.50;79.50
43338;DHT22;28933;52.492;13.434;2022-07-06T05:41:28;18.50;79.20
43338;DHT22;28933;52.492;13.434;2022-07-06T05:43:54;18.50;79.00
43338;DHT22;28933;52.492;13.434;2022-07-06T05:46:19;18.50;78.60
43338;DHT22;28933;52.492;13.434;2022-07-06T05:48:45;18.50;78.80
43338;DHT22;28933;52.492;13.434;2022-07-06T05:51:29;18.50;78.60
43338;DHT22;28933;52.492;13.434;2022-07-06T05:53:55;18.50;78.60
43338;DHT22;28933;52.492;13.434;2022-07-06T05:56:20;18.50;79.00
43338;DHT22;28933;52.492;13.434;2022-07-06T05:58:46;18.50;78.80
43338;DHT22;28933;52.492;13.434;2022-07-06T06:01:11;18.60;78.60
43338;DHT22;28933;52.492;13.434;2022-07-06T06:03:37;18.70;78.60
43338;DHT22;28933;52.492;13.434;2022-07-06T06:06:02;18.70;78.50
43338;DHT22;28933;52.492;13.434;2022-07-06T06:08:28;18.70;78.50
43338;DHT22;28933;52.492;13.434;2022-07-06T06:10:54;18.80;78.20
43338;DHT22;28933;52.492;13.434;2022-07-06T06:13:19;18.90;78.00
43338;DHT22;28933;52.492;13.434;2022-07-06T06:15:45;18.90;77.90
43338;DHT22;28933;52.492;13.434;2022-07-06T06:18:11;19.00;77.80
43338;DHT22;28933;52.492;13.434;2022-07-06T06:20:36;19.10;77.60
43338;DHT22;28933;52.492;13.434;2022-07-06T06:23:02;19.10;77.40
43338;DHT22;28933;52.492;13.434;2022-07-06T06:25:30;19.10;77.20
43338;DHT22;28933;52.492;13.434;2022-07-06T06:27:56;19.20;77.00
43338;DHT22;28933;52.492;13.434;2022-07-06T06:30:21;19.20;77.00
43338;DHT22;28933;52.492;13.434;2022-07-06T06:32:47;19.20;77.00
43338;DHT22;28933;52.492;13.434;2022-07-06T06:35:13;19.30;77.00
43338;DHT22;28933;52.492;13.434;2022-07-06T06:37:39;19.40;77.00
43338;DHT22;28933;52.492;13.434;2022-07-06T06:40:05;19.40;76.90
43338;DHT22;28933;52.492;13.434;2022-07-06T06:42:32;19.50;76.80
43338;DHT22;28933;52.492;13.434;2022-07-06T06:44:57;19.50;76.40
43338;DHT22;28933;52.492;13.434;2022-07-06T06:47:23;19.50;76.50
43338;DHT22;28933;52.492;13.434;2022-07-06T06:49:48;19.60;76.70
43338;DHT22;28933;52.492;13.434;2022-07-06T06:52:14;19.70;77.00
43338;DHT22;28933;52.492;13.434;2022-07-06T06:54:40;19.80;75.90
43338;DHT22;28933;52.492;13.434;2022-07-06T06:57:06;19.80;75.60
43338;DHT22;28933;52.492;13.434;2022-07-06T06:59:31;19.70;75.50
43338;DHT22;28933;52.492;13.434;2022-07-06T07:01:57;19.70;75.20
43338;DHT22;28933;52.492;13.434;2022-07-06T07:04:23;19.70;75.40
43338;DHT22;28933;52.492;13.434;2022-07-06T07:06:48;19.80;75.30
43338;DHT22;28933;52.492;13.434;2022-07-06T07:09:14;19.80;75.30
43338;DHT22;28933;52.492;13.434;2022-07-06T07:11:39;19.90;75.00
43338;DHT22;28933;52.492;13.434;2022-07-06T07:14:05;19.90;74.80
43338;DHT22;28933;52.492;13.434;2022-07-06T07:16:31;20.00;74.60
43338;DHT22;28933;52.492;13.434;2022-07-06T07:18:56;20.00;74.10
43338;DHT22;28933;52.492;13.434;2022-07-06T07:21:22;20.00;74.00
43338;DHT22;28933;52.492;13.434;2022-07-06T07:23:48;20.00;73.10
43338;DHT22;28933;52.492;13.434;2022-07-06T07:26:15;20.00;73.20
43338;DHT22;28933;52.492;13.434;2022-07-06T07:28:41;20.10;72.90
43338;DHT22;28933;52.492;13.434;2022-07-06T07:31:07;20.20;73.40
43338;DHT22;28933;52.492;13.434;2022-07-06T07:33:32;20.30;73.20
43338;DHT22;28933;52.492;13.434;2022-07-06T07:35:58;20.50;72.70
43338;DHT22;28933;52.492;13.434;2022-07-06T07:38:23;20.60;72.10
43338;DHT22;28933;52.492;13.434;2022-07-06T07:40:49;20.70;71.20
43338;DHT22;28933;52.492;13.434;2022-07-06T07:43:14;20.70;71.20
43338;DHT22;28933;52.492;13.434;2022-07-06T07:45:40;20.70;71.00
43338;DHT22;28933;52.492;13.434;2022-07-06T07:48:06;20.70;69.80
43338;DHT22;28933;52.492;13.434;2022-07-06T07:50:31;20.70;70.30
43338;DHT22;28933;52.492;13.434;2022-07-06T07:52:57;20.80;69.70
43338;DHT22;28933;52.492;13.434;2022-07-06T07:55:22;20.80;69.30
43338;DHT22;28933;52.492;13.434;2022-07-06T07:57:48;20.90;69.50
43338;DHT22;28933;52.492;13.434;2022-07-06T08:00:14;21.10;69.90
43338;DHT22;28933;52.492;13.434;2022-07-06T08:02:39;21.20;69.20
43338;DHT22;28933;52.492;13.434;2022-07-06T08:05:06;21.30;67.70
43338;DHT22;28933;52.492;13.434;2022-07-06T08:07:31;21.40;67.40
43338;DHT22;28933;52.492;13.434;2022-07-06T08:09:57;21.40;66.60
43338;DHT22;28933;52.492;13.434;2022-07-06T08:12:22;21.50;65.80
43338;DHT22;28933;52.492;13.434;2022-07-06T08:14:48;21.60;66.20
43338;DHT22;28933;52.492;13.434;2022-07-06T08:17:16;21.70;65.70
43338;DHT22;28933;52.492;13.434;2022-07-06T08:19:42;21.80;64.80
43338;DHT22;28933;52.492;13.434;2022-07-06T08:22:07;21.70;64.30
43338;DHT22;28933;52.492;13.434;2022-07-06T08:24:36;21.70;64.80
43338;DHT22;28933;52.492;13.434;2022-07-06T08:27:02;21.80;65.60
43338;DHT22;28933;52.492;13.434;2022-07-06T08:29:29;21.90;65.00
43338;DHT22;28933;52.492;13.434;2022-07-06T08:31:54;22.00;64.50
43338;DHT22;28933;52.492;13.434;2022-07-06T08:34:20;22.00;64.80
43338;DHT22;28933;52.492;13.434;2022-07-06T08:36:46;22.10;63.50
43338;DHT22;28933;52.492;13.434;2022-07-06T08:39:11;22.10;63.30
43338;DHT22;28933;52.492;13.434;2022-07-06T08:41:38;22.20;62.40
43338;DHT22;28933;52.492;13.434;2022-07-06T08:44:06;22.00;61.90
43338;DHT22;28933;52.492;13.434;2022-07-06T08:46:32;22.00;62.60
43338;DHT22;28933;52.492;13.434;2022-07-06T08:48:58;22.00;62.50
43338;DHT22;28933;52.492;13.434;2022-07-06T08:51:24;22.10;62.60
43338;DHT22;28933;52.492;13.434;2022-07-06T08:53:51;22.20;62.30
43338;DHT22;28933;52.492;13.434;2022-07-06T08:56:18;22.20;61.40
43338;DHT22;28933;52.492;13.434;2022-07-06T08:58:44;22.30;59.70
43338;DHT22;28933;52.492;13.434;2022-07-06T09:01:10;22.30;59.90
43338;DHT22;28933;52.492;13.434;2022-07-06T09:03:36;22.30;59.30
43338;DHT22;28933;52.492;13.434;2022-07-06T09:06:02;22.30;58.40
43338;DHT22;28933;52.492;13.434;2022-07-06T09:08:30;22.20;58.10
43338;DHT22;28933;52.492;13.434;2022-07-06T09:10:56;22.10;58.00
43338;DHT22;28933;52.492;13.434;2022-07-06T09:13:24;22.10;59.00
43338;DHT22;28933;52.492;13.434;2022-07-06T09:15:50;22.10;58.70
43338;DHT22;28933;52.492;13.434;2022-07-06T09:18:15;22.20;58.10
43338;DHT22;28933;52.492;13.434;2022-07-06T09:20:42;22.20;58.40
43338;DHT22;28933;52.492;13.434;2022-07-06T09:23:07;22.20;57.90
43338;DHT22;28933;52.492;13.434;2022-07-06T09:25:35;22.20;58.30
43338;DHT22;28933;52.492;13.434;2022-07-06T09:28:01;22.30;57.90
43338;DHT22;28933;52.492;13.434;2022-07-06T09:30:28;22.40;58.20
43338;DHT22;28933;52.492;13.434;2022-07-06T09:32:57;22.50;57.90
43338;DHT22;28933;52.492;13.434;2022-07-06T09:35:29;22.70;57.60
43338;DHT22;28933;52.492;13.434;2022-07-06T09:40:34;22.80;54.30
43338;DHT22;28933;52.492;13.434;2022-07-06T09:43:17;22.70;54.00
43338;DHT22;28933;52.492;13.434;2022-07-06T09:45:54;22.60;53.20
43338;DHT22;28933;52.492;13.434;2022-07-06T09:50:52;22.60;53.50
43338;DHT22;28933;52.492;13.434;2022-07-06T09:53:19;22.50;53.60
43338;DHT22;28933;52.492;13.434;2022-07-06T09:55:46;22.50;54.10
43338;DHT22;28933;52.492;13.434;2022-07-06T09:58:13;22.50;53.90
43338;DHT22;28933;52.492;13.434;2022-07-06T10:00:38;22.50;54.00
43338;DHT22;28933;52.492;13.434;2022-07-06T10:03:05;22.50;54.30
43338;DHT22;28933;52.492;13.434;2022-07-06T10:05:31;22.60;53.90
43338;DHT22;28933;52.492;13.434;2022-07-06T10:07:59;22.50;54.30
43338;DHT22;28933;52.492;13.434;2022-07-06T10:10:27;22.50;54.40
43338;DHT22;28933;52.492;13.434;2022-07-06T10:12:57;22.50;54.90
43338;DHT22;28933;52.492;13.434;2022-07-06T10:15:28;22.40;55.20
43338;DHT22;28933;52.492;13.434;2022-07-06T10:17:55;22.40;55.30
43338;DHT22;28933;52.492;13.434;2022-07-06T10:20:22;22.40;55.70
43338;DHT22;28933;52.492;13.434;2022-07-06T10:22:50;22.40;55.00
43338;DHT22;28933;52.492;13.434;2022-07-06T10:25:17;22.40;55.60
43338;DHT22;28933;52.492;13.434;2022-07-06T10:27:43;22.40;55.80
43338;DHT22;28933;52.492;13.434;2022-07-06T10:30:10;22.40;56.00
43338;DHT22;28933;52.492;13.434;2022-07-06T10:32:37;22.40;56.60
43338;DHT22;28933;52.492;13.434;2022-07-06T10:35:05;22.50;57.40
43338;DHT22;28933;52.492;13.434;2022-07-06T10:37:30;22.60;57.30
43338;DHT22;28933;52.492;13.434;2022-07-06T10:39:58;22.80;57.20
43338;DHT22;28933;52.492;13.434;2022-07-06T10:50:38;22.90;56.70
43338;DHT22;28933;52.492;13.434;2022-07-06T10:53:11;22.90;56.50
43338;DHT22;28933;52.492;13.434;2022-07-06T10:55:38;22.90;56.10
43338;DHT22;28933;52.492;13.434;2022-07-06T10:58:05;22.90;56.10
43338;DHT22;28933;52.492;13.434;2022-07-06T11:00:54;23.00;55.80
43338;DHT22;28933;52.492;13.434;2022-07-06T11:06:38;22.90;55.70
43338;DHT22;28933;52.492;13.434;2022-07-06T11:09:09;22.80;56.60
43338;DHT22;28933;52.492;13.434;2022-07-06T11:14:17;23.00;56.00
43338;DHT22;28933;52.492;13.434;2022-07-06T11:19:16;23.30;55.20
43338;DHT22;28933;52.492;13.434;2022-07-06T11:21:56;23.30;54.20
43338;DHT22;28933;52.492;13.434;2022-07-06T11:24:26;23.30;54.50
43338;DHT22;28933;52.492;13.434;2022-07-06T11:26:53;23.30;54.40
43338;DHT22;28933;52.492;13.434;2022-07-06T11:29:21;23.20;54.90
43338;DHT22;28933;52.492;13.434;2022-07-06T11:31:49;23.20;55.50
43338;DHT22;28933;52.492;13.434;2022-07-06T11:34:23;23.00;55.00
43338;DHT22;28933;52.492;13.434;2022-07-06T11:36:55;22.90;55.50
43338;DHT22;28933;52.492;13.434;2022-07-06T11:39:21;22.90;56.00
43338;DHT22;28933;52.492;13.434;2022-07-06T11:41:47;22.90;55.80
43338;DHT22;28933;52.492;13.434;2022-07-06T11:44:13;23.00;55.40
43338;DHT22;28933;52.492;13.434;2022-07-06T11:46:38;23.00;55.50
43338;DHT22;28933;52.492;13.434;2022-07-06T11:49:08;23.10;55.70
43338;DHT22;28933;52.492;13.434;2022-07-06T11:51:37;23.30;55.40
43338;DHT22;28933;52.492;13.434;2022-07-06T11:54:21;23.40;54.90
43338;DHT22;28933;52.492;13.434;2022-07-06T11:56:51;23.40;53.60
43338;DHT22;28933;52.492;13.434;2022-07-06T11:59:31;23.30;54.30
43338;DHT22;28933;52.492;13.434;2022-07-06T12:02:05;23.30;53.70
43338;DHT22;28933;52.492;13.434;2022-07-06T12:04:33;23.30;54.40
43338;DHT22;28933;52.492;13.434;2022-07-06T12:07:09;23.40;54.10
43338;DHT22;28933;52.492;13.434;2022-07-06T12:09:38;23.60;53.90
43338;DHT22;28933;52.492;13.434;2022-07-06T12:12:04;23.60;53.80
43338;DHT22;28933;52.492;13.434;2022-07-06T12:14:32;23.70;53.50
43338;DHT22;28933;52.492;13.434;2022-07-06T12:17:06;23.60;53.70
43338;DHT22;28933;52.492;13.434;2022-07-06T12:19:32;23.60;53.90
43338;DHT22;28933;52.492;13.434;2022-07-06T12:21:58;23.60;53.90
43338;DHT22;28933;52.492;13.434;2022-07-06T12:24:25;23.60;54.10
43338;DHT22;28933;52.492;13.434;2022-07-06T12:26:53;23.60;54.10
43338;DHT22;28933;52.492;13.434;2022-07-06T12:29:20;23.60;53.10
43338;DHT22;28933;52.492;13.434;2022-07-06T12:31:56;23.40;53.60
43338;DHT22;28933;52.492;13.434;2022-07-06T12:34:24;23.50;54.10
43338;DHT22;28933;52.492;13.434;2022-07-06T12:36:50;23.50;54.10
43338;DHT22;28933;52.492;13.434;2022-07-06T12:39:19;23.50;54.40
43338;DHT22;28933;52.492;13.434;2022-07-06T12:41:56;23.40;54.30
43338;DHT22;28933;52.492;13.434;2022-07-06T12:44:26;23.40;54.70
43338;DHT22;28933;52.492;13.434;2022-07-06T12:47:03;23.40;55.00
43338;DHT22;28933;52.492;13.434;2022-07-06T12:49:30;23.60;55.80
43338;DHT22;28933;52.492;13.434;2022-07-06T12:52:01;23.70;55.00
43338;DHT22;28933;52.492;13.434;2022-07-06T13:02:26;23.80;54.20
43338;DHT22;28933;52.492;13.434;2022-07-06T13:04:58;23.90;53.90
43338;DHT22;28933;52.492;13.434;2022-07-06T13:07:25;23.90;54.00
43338;DHT22;28933;52.492;13.434;2022-07-06T13:09:51;23.90;54.20
43338;DHT22;28933;52.492;13.434;2022-07-06T13:12:17;24.00;54.20
43338;DHT22;28933;52.492;13.434;2022-07-06T13:14:42;24.10;54.30
43338;DHT22;28933;52.492;13.434;2022-07-06T13:17:08;24.10;54.60
43338;DHT22;28933;52.492;13.434;2022-07-06T13:19:33;24.20;53.90
43338;DHT22;28933;52.492;13.434;2022-07-06T13:21:59;24.20;53.40
43338;DHT22;28933;52.492;13.434;2022-07-06T13:24:25;24.20;53.10
43338;DHT22;28933;52.492;13.434;2022-07-06T13:26:53;24.20;52.60
43338;DHT22;28933;52.492;13.434;2022-07-06T13:29:19;24.30;52.80
43338;DHT22;28933;52.492;13.434;2022-07-06T13:31:44;24.30;52.50
43338;DHT22;28933;52.492;13.434;2022-07-06T13:34:10;24.40;52.80
43338;DHT22;28933;52.492;13.434;2022-07-06T13:36:35;24.50;52.50
43338;DHT22;28933;52.492;13.434;2022-07-06T13:39:02;24.50;52.50
43338;DHT22;28933;52.492;13.434;2022-07-06T13:41:28;24.40;52.10
43338;DHT22;28933;52.492;13.434;2022-07-06T13:43:53;24.30;52.40
43338;DHT22;28933;52.492;13.434;2022-07-06T13:46:19;24.20;52.30
43338;DHT22;28933;52.492;13.434;2022-07-06T13:48:46;24.10;52.50
43338;DHT22;28933;52.492;13.434;2022-07-06T13:51:12;24.00;52.50
43338;DHT22;28933;52.492;13.434;2022-07-06T13:53:38;24.00;52.50
43338;DHT22;28933;52.492;13.434;2022-07-06T13:56:05;24.00;52.60
43338;DHT22;28933;52.492;13.434;2022-07-06T13:58:30;24.00;51.70
43338;DHT22;28933;52.492;13.434;2022-07-06T14:00:56;23.90;51.80
43338;DHT22;28933;52.492;13.434;2022-07-06T14:03:21;23.90;51.40
43338;DHT22;28933;52.492;13.434;2022-07-06T14:05:53;23.80;52.10
43338;DHT22;28933;52.492;13.434;2022-07-06T14:08:19;23.80;52.30
43338;DHT22;28933;52.492;13.434;2022-07-06T14:10:44;23.90;52.50
43338;DHT22;28933;52.492;13.434;2022-07-06T14:13:10;24.00;52.70
43338;DHT22;28933;52.492;13.434;2022-07-06T14:15:36;24.30;52.50
43338;DHT22;28933;52.492;13.434;2022-07-06T14:18:01;24.50;52.30
43338;DHT22;28933;52.492;13.434;2022-07-06T14:20:27;24.50;51.10
43338;DHT22;28933;52.492;13.434;2022-07-06T14:22:52;24.50;50.70
43338;DHT22;28933;52.492;13.434;2022-07-06T14:25:18;24.40;50.40
43338;DHT22;28933;52.492;13.434;2022-07-06T14:27:43;24.30;50.10
43338;DHT22;28933;52.492;13.434;2022-07-06T14:30:09;24.30;50.60
43338;DHT22;28933;52.492;13.434;2022-07-06T14:32:35;24.10;50.30
43338;DHT22;28933;52.492;13.434;2022-07-06T14:35:01;24.00;50.40
43338;DHT22;28933;52.492;13.434;2022-07-06T14:37:26;24.00;50.90
43338;DHT22;28933;52.492;13.434;2022-07-06T14:39:52;23.90;51.00
43338;DHT22;28933;52.492;13.434;2022-07-06T14:42:17;24.00;51.30
43338;DHT22;28933;52.492;13.434;2022-07-06T14:44:43;24.00;51.30
43338;DHT22;28933;52.492;13.434;2022-07-06T14:47:09;23.80;51.80
43338;DHT22;28933;52.492;13.434;2022-07-06T14:49:34;23.70;51.80
43338;DHT22;28933;52.492;13.434;2022-07-06T14:52:00;23.70;52.10
43338;DHT22;28933;52.492;13.434;2022-07-06T14:54:26;23.70;52.20
43338;DHT22;28933;52.492;13.434;2022-07-06T14:56:51;23.70;51.90
43338;DHT22;28933;52.492;13.434;2022-07-06T14:59:18;23.60;52.30
43338;DHT22;28933;52.492;13.434;2022-07-06T15:01:44;23.60;52.60
43338;DHT22;28933;52.492;13.434;2022-07-06T15:04:10;23.50;52.80
43338;DHT22;28933;52.492;13.434;2022-07-06T15:06:36;23.40;52.90
43338;DHT22;28933;52.492;13.434;2022-07-06T15:09:02;23.20;53.00
43338;DHT22;28933;52.492;13.434;2022-07-06T15:11:30;23.00;53.30
43338;DHT22;28933;52.492;13.434;2022-07-06T15:13:56;22.80;53.80
43338;DHT22;28933;52.492;13.434;2022-07-06T15:16:22;22.70;54.20
43338;DHT22;28933;52.492;13.434;2022-07-06T15:18:49;22.70;54.30
43338;DHT22;28933;52.492;13.434;2022-07-06T15:21:15;22.60;54.80
43338;DHT22;28933;52.492;13.434;2022-07-06T15:23:41;22.60;55.00
43338;DHT22;28933;52.492;13.434;2022-07-06T15:26:07;22.50;55.40
43338;DHT22;28933;52.492;13.434;2022-07-06T15:28:33;22.50;55.60
43338;DHT22;28933;52.492;13.434;2022-07-06T15:30:59;22.50;55.50
43338;DHT22;28933;52.492;13.434;2022-07-06T15:33:24;22.30;56.00
43338;DHT22;28933;52.492;13.434;2022-07-06T15:35:50;22.20;56.10
43338;DHT22;28933;52.492;13.434;2022-07-06T15:38:16;22.10;56.20
43338;DHT22;28933;52.492;13.434;2022-07-06T15:40:41;22.10;56.30